Franconia, New Hampshire
Current Conditions -  °F | °C
As of 12:52 AM on Saturday 25 Oct 2014 (Local Time) from KHIE Reporting Station
Overcast Overcast  
Wind Chill: 43°   Ceiling: 6500
Heat Index: 43°   Visibility: 10mi
Dew Point: 40°   Wind: 3mph
Humidity: 89%   Direction: 220°SW
Pressure: 29.8"   Gusts: NA
Location:  44.23°N, 71.75°W
Report Text: KHIE 250452Z AUTO 22003KT 10SM OVC065 06/04 A2980 RMK AO2 SLP097 T00610044 400780056
Loading
Personal Weather Stations






























Interactive Weather Map
Tropical Storm Tracking
New forecast layout! Learn more

10-Day Weather Forecast

Advertisements
Track Severe Weather on mobile